Time;durP1;ratioP1;P1;durP2;ratioP2;P2;SDS_P1;SDS_P2;PMS_P1;PMS_P2;Temp;Humidity;BMP_temperature;BMP_pressure;BME280_temperature;BME280_humidity;BME280_pressure;Samples;Min_cycle;Max_cycle;Signal;HPM_P1;HPM_P2
2021/10/28 00:12:26;;;;;;;13.07;8.35;;;7.40;93.40;;;;;;5013603;28;20041;-79
2021/10/28 00:14:55;;;;;;;11.80;7.85;;;7.40;93.30;;;;;;5013138;28;20083;-78
2021/10/28 00:20:08;;;;;;;13.07;9.77;;;7.30;93.40;;;;;;5013644;28;20105;-78
2021/10/28 00:22:35;;;;;;;10.52;8.50;;;7.40;93.50;;;;;;5013370;28;20371;-79
2021/10/28 00:25:01;;;;;;;16.02;9.18;;;7.30;93.50;;;;;;5013241;28;20079;-79
2021/10/28 00:27:27;;;;;;;20.33;10.45;;;7.30;93.60;;;;;;5013776;28;20030;-79
2021/10/28 00:29:53;;;;;;;16.55;9.73;;;7.30;93.60;;;;;;5013344;28;20025;-79
2021/10/28 00:32:19;;;;;;;13.85;9.10;;;7.30;93.70;;;;;;5013287;28;20040;-79
2021/10/28 00:34:45;;;;;;;16.60;10.65;;;7.30;93.70;;;;;;5013163;28;20104;-79
2021/10/28 00:37:11;;;;;;;11.52;8.52;;;7.30;93.60;;;;;;5013300;28;20049;-78
2021/10/28 00:39:39;;;;;;;18.05;9.00;;;7.30;93.70;;;;;;5013697;28;20028;-79
2021/10/28 00:42:05;;;;;;;11.40;8.70;;;7.30;93.80;;;;;;5012966;28;20018;-80
2021/10/28 00:44:31;;;;;;;15.98;9.55;;;7.30;93.80;;;;;;5014558;28;20026;-79
2021/10/28 00:46:57;;;;;;;14.80;10.50;;;7.20;93.90;;;;;;5017063;28;20029;-81
2021/10/28 00:49:23;;;;;;;12.70;9.13;;;7.20;93.90;;;;;;5017202;28;20049;-79
2021/10/28 00:51:49;;;;;;;15.90;10.88;;;7.20;93.90;;;;;;5016820;28;20418;-79
2021/10/28 00:54:21;;;;;;;14.38;8.95;;;7.20;94.00;;;;;;5016755;28;20101;-82
2021/10/28 00:56:48;;;;;;;12.82;8.93;;;7.20;94.10;;;;;;5017267;28;20033;-80
2021/10/28 00:59:14;;;;;;;17.52;9.82;;;7.20;94.10;;;;;;4999358;28;20025;-81
2021/10/28 01:01:41;;;;;;;17.08;9.90;;;7.30;94.10;;;;;;5016894;28;20057;-81
2021/10/28 01:04:07;;;;;;;14.77;9.82;;;7.30;94.10;;;;;;5017132;28;20025;-80
2021/10/28 01:06:34;;;;;;;13.48;8.98;;;7.30;94.10;;;;;;5017264;28;20029;-80
2021/10/28 01:09:00;;;;;;;15.73;10.30;;;7.40;94.10;;;;;;5018712;28;20503;-79
2021/10/28 01:11:28;;;;;;;12.18;9.35;;;7.40;94.00;;;;;;5016884;28;20026;-81
2021/10/28 01:13:56;;;;;;;15.85;10.40;;;7.40;94.00;;;;;;5010720;28;20181;-79
2021/10/28 01:16:22;;;;;;;13.23;9.63;;;7.40;94.00;;;;;;4997134;28;20030;-80
2021/10/28 01:18:48;;;;;;;15.57;11.10;;;7.50;93.90;;;;;;4996001;28;20082;-80
2021/10/28 01:21:14;;;;;;;14.90;9.45;;;7.50;93.90;;;;;;4997047;28;20072;-80
2021/10/28 01:23:42;;;;;;;15.65;10.50;;;7.50;93.90;;;;;;4997192;28;20479;-80
2021/10/28 01:26:12;;;;;;;13.73;9.95;;;7.50;93.90;;;;;;4996792;28;20026;-82
2021/10/28 01:28:56;;;;;;;13.52;10.02;;;7.50;93.90;;;;;;4996719;28;20030;-80
2021/10/28 01:31:25;;;;;;;16.42;9.75;;;7.50;94.00;;;;;;4996660;28;20033;-81
2021/10/28 01:33:52;;;;;;;14.38;10.63;;;7.50;94.00;;;;;;4996747;28;20062;-80
2021/10/28 01:36:19;;;;;;;;;;;7.50;94.00;;;;;;4997500;28;20428;-80
2021/10/28 01:38:46;;;;;;;12.67;9.43;;;7.50;93.90;;;;;;4996913;28;20572;-80
2021/10/28 01:41:12;;;;;;;17.20;10.50;;;7.50;94.00;;;;;;5001235;28;20262;-80
2021/10/28 01:43:38;;;;;;;18.92;11.98;;;7.50;94.10;;;;;;5016150;28;20367;-80
2021/10/28 01:46:05;;;;;;;16.65;10.68;;;7.50;94.20;;;;;;5016049;28;20100;-81
2021/10/28 01:48:32;;;;;;;;;;;7.50;94.20;;;;;;4997004;28;20022;-79
2021/10/28 01:50:59;;;;;;;15.82;11.35;;;7.50;94.10;;;;;;5015859;28;19960;-81
2021/10/28 01:53:24;;;;;;;13.30;9.05;;;7.40;94.20;;;;;;5015821;28;20080;-80
2021/10/28 01:55:50;;;;;;;15.77;11.65;;;7.50;94.30;;;;;;5015208;28;20114;-80
2021/10/28 01:58:22;;;;;;;15.98;11.48;;;7.40;94.40;;;;;;5016153;28;20053;-79
2021/10/28 02:00:48;;;;;;;15.57;11.32;;;7.40;94.50;;;;;;5016142;28;20033;-79
2021/10/28 02:03:14;;;;;;;16.35;11.82;;;7.40;94.50;;;;;;4998355;28;20124;-81
2021/10/28 02:05:39;;;;;;;18.65;10.57;;;7.40;94.60;;;;;;5015988;28;20105;-80
2021/10/28 02:08:05;;;;;;;21.63;13.98;;;7.30;94.70;;;;;;5015921;28;20615;-80
2021/10/28 02:10:31;;;;;;;19.10;12.57;;;7.30;94.90;;;;;;4998258;28;20080;-80
2021/10/28 02:12:58;;;;;;;19.40;12.43;;;7.40;94.90;;;;;;5009374;28;20128;-81
2021/10/28 02:15:25;;;;;;;16.63;13.10;;;7.40;94.90;;;;;;4996276;28;20018;-80
2021/10/28 02:17:51;;;;;;;16.92;12.18;;;7.40;94.90;;;;;;4978577;28;20022;-81
2021/10/28 02:20:19;;;;;;;20.83;13.57;;;7.40;94.90;;;;;;4996125;28;20034;-81
2021/10/28 02:22:46;;;;;;;;;;;7.40;95.00;;;;;;4996446;28;20034;-81
2021/10/28 02:25:12;;;;;;;17.20;11.25;;;7.40;94.80;;;;;;4996273;28;19996;-80
2021/10/28 02:27:39;;;;;;;18.98;12.70;;;7.30;95.00;;;;;;4996115;28;20041;-79
2021/10/28 02:30:08;;;;;;;17.13;12.63;;;7.30;95.10;;;;;;4995897;28;20085;-80
2021/10/28 02:32:34;;;;;;;19.80;12.45;;;7.30;95.20;;;;;;4996137;28;20046;-81
2021/10/28 02:35:01;;;;;;;19.08;12.50;;;7.30;95.30;;;;;;4996122;28;20018;-81
2021/10/28 02:37:28;;;;;;;18.13;12.52;;;7.30;95.30;;;;;;4996326;28;20479;-80
2021/10/28 02:39:54;;;;;;;14.88;11.55;;;7.20;95.40;;;;;;4980359;28;20117;-82
2021/10/28 02:42:20;;;;;;;20.55;14.63;;;7.20;95.40;;;;;;5010622;28;20525;-80
2021/10/28 02:44:46;;;;;;;19.35;12.93;;;7.10;95.60;;;;;;5015053;28;20022;-81
2021/10/28 02:47:12;;;;;;;18.33;11.90;;;7.20;95.70;;;;;;5015045;28;20130;-81
2021/10/28 02:49:38;;;;;;;18.60;10.48;;;7.20;95.60;;;;;;5015096;28;20029;-79
2021/10/28 02:52:05;;;;;;;16.13;12.30;;;7.10;95.70;;;;;;5014981;28;20395;-81
2021/10/28 02:54:32;;;;;;;16.95;12.88;;;7.00;95.80;;;;;;5015343;28;20046;-80
2021/10/28 02:56:58;;;;;;;18.95;12.48;;;7.00;95.90;;;;;;5015018;28;20108;-80
2021/10/28 02:59:24;;;;;;;20.25;13.30;;;7.00;95.90;;;;;;5015167;28;20032;-81
2021/10/28 03:01:52;;;;;;;15.98;11.13;;;6.90;96.00;;;;;;4997968;28;20026;-80
2021/10/28 03:04:20;;;;;;;18.48;13.40;;;6.90;96.20;;;;;;4997711;28;20026;-81
2021/10/28 03:06:47;;;;;;;19.13;13.38;;;6.90;96.30;;;;;;5014783;28;20029;-80
2021/10/28 03:09:16;;;;;;;16.60;12.97;;;6.90;96.40;;;;;;5013899;28;20108;-81
2021/10/28 03:11:43;;;;;;;19.65;14.40;;;6.90;96.50;;;;;;5007759;28;20781;-81
2021/10/28 03:14:12;;;;;;;18.83;14.05;;;6.90;96.60;;;;;;4994983;28;20113;-80
2021/10/28 03:27:23;;;;;;;20.98;13.57;;;6.70;97.50;;;;;;5014454;28;20172;-78
2021/10/28 03:29:49;;;;;;;21.27;14.93;;;6.70;97.70;;;;;;4996530;28;20025;-78
2021/10/28 03:32:14;;;;;;;17.80;14.02;;;6.60;97.90;;;;;;5014705;28;20029;-81
2021/10/28 03:34:41;;;;;;;23.17;14.88;;;6.60;98.30;;;;;;5014538;28;20749;-81
2021/10/28 03:37:14;;;;;;;20.13;14.88;;;6.60;98.50;;;;;;5014386;28;20022;-80
2021/10/28 03:47:50;;;;;;;19.48;14.68;;;6.60;99.00;;;;;;5014423;28;20028;-81
2021/10/28 04:06:06;;;;;;;21.58;13.57;;;6.60;99.40;;;;;;4987465;28;20124;-80
2021/10/28 04:08:56;;;;;;;17.35;14.52;;;6.60;99.40;;;;;;4974441;28;20106;-78
2021/10/28 04:30:10;;;;;;;15.40;13.48;;;6.60;99.90;;;;;;4993603;28;20587;-81
2021/10/28 04:32:36;;;;;;;22.10;14.20;;;6.50;99.90;;;;;;4993714;28;20034;-81
2021/10/28 04:35:02;;;;;;;19.45;14.30;;;6.50;99.90;;;;;;4993685;28;20030;-81
2021/10/28 04:37:28;;;;;;;19.88;14.43;;;6.50;99.90;;;;;;4993915;28;20403;-82
2021/10/28 04:39:54;;;;;;;21.48;15.13;;;6.60;99.90;;;;;;4994317;28;20031;-79
2021/10/28 04:42:21;;;;;;;19.50;13.45;;;6.60;99.90;;;;;;5008219;28;20085;-80
2021/10/28 04:44:46;;;;;;;14.20;11.60;;;6.60;99.90;;;;;;4995929;28;20018;-79
2021/10/28 04:47:12;;;;;;;17.05;11.65;;;6.60;99.90;;;;;;5013200;28;20033;-80
2021/10/28 04:49:38;;;;;;;16.50;12.10;;;6.70;99.90;;;;;;5012997;28;20050;-79
2021/10/28 04:52:05;;;;;;;16.13;12.43;;;6.70;99.90;;;;;;5012988;28;20048;-80
2021/10/28 04:54:31;;;;;;;13.60;10.70;;;6.70;99.90;;;;;;5013085;28;20041;-80
2021/10/28 04:56:57;;;;;;;20.50;12.38;;;6.70;99.90;;;;;;5013769;28;20025;-80
2021/10/28 04:59:23;;;;;;;19.33;10.63;;;6.70;99.90;;;;;;4996175;28;20022;-80
2021/10/28 05:01:49;;;;;;;12.98;10.82;;;6.80;99.90;;;;;;4996014;28;20072;-80
2021/10/28 05:04:14;;;;;;;13.85;10.40;;;6.80;99.90;;;;;;5013398;28;20037;-80
2021/10/28 05:06:41;;;;;;;15.02;10.52;;;6.90;99.90;;;;;;5013483;28;20026;-81
2021/10/28 05:09:08;;;;;;;15.10;10.75;;;6.80;99.90;;;;;;5005385;28;20101;-80
2021/10/28 05:11:34;;;;;;;14.93;11.60;;;6.90;99.90;;;;;;4993587;28;20022;-81
2021/10/28 05:14:00;;;;;;;15.50;10.45;;;6.90;99.90;;;;;;4993413;28;20048;-80
2021/10/28 05:16:26;;;;;;;11.73;9.05;;;6.80;99.90;;;;;;4982043;28;20027;-81
2021/10/28 05:18:51;;;;;;;13.40;9.18;;;6.90;99.90;;;;;;4983841;28;20026;-80
2021/10/28 05:21:17;;;;;;;13.23;9.95;;;6.80;99.90;;;;;;5011395;28;20033;-80
2021/10/28 05:23:46;;;;;;;13.77;9.20;;;6.90;99.90;;;;;;5012587;28;20104;-80
2021/10/28 05:26:11;;;;;;;16.80;11.23;;;6.90;99.90;;;;;;5012877;28;20109;-80
2021/10/28 05:28:37;;;;;;;14.57;10.13;;;7.00;99.90;;;;;;5012607;28;20125;-81
2021/10/28 05:31:03;;;;;;;11.60;8.93;;;7.00;99.90;;;;;;5013188;28;20029;-81
2021/10/28 05:33:30;;;;;;;12.75;9.30;;;7.10;99.90;;;;;;5014884;28;20034;-80
2021/10/28 05:35:56;;;;;;;14.52;10.38;;;7.10;99.90;;;;;;5016552;28;20053;-80
2021/10/28 05:38:22;;;;;;;14.02;9.82;;;7.10;99.90;;;;;;5016373;28;20063;-80
2021/10/28 05:40:48;;;;;;;11.35;9.13;;;7.10;99.90;;;;;;5016042;28;20026;-80
2021/10/28 05:43:13;;;;;;;16.42;9.75;;;7.10;99.90;;;;;;5016483;28;20037;-81
2021/10/28 05:45:39;;;;;;;13.73;9.30;;;7.10;99.90;;;;;;5006352;28;20023;-81
2021/10/28 05:48:06;;;;;;;10.43;8.68;;;7.20;99.90;;;;;;4978533;28;20037;-82
2021/10/28 05:50:32;;;;;;;14.20;9.60;;;7.20;99.90;;;;;;4978418;28;20023;-83
2021/10/28 05:52:59;;;;;;;10.32;7.43;;;7.20;99.90;;;;;;4977444;28;20056;-84
2021/10/28 05:55:26;;;;;;;12.02;8.90;;;7.20;99.90;;;;;;4993033;28;20512;-80
2021/10/28 05:57:53;;;;;;;11.10;8.60;;;7.20;99.90;;;;;;4995480;28;20506;-81
2021/10/28 06:00:22;;;;;;;11.63;8.57;;;7.20;99.90;;;;;;4996330;28;20471;-81
2021/10/28 06:02:48;;;;;;;14.40;9.05;;;7.30;99.90;;;;;;4979065;28;20038;-82
2021/10/28 06:05:17;;;;;;;13.88;9.20;;;7.30;99.90;;;;;;4996104;28;20109;-83
2021/10/28 06:07:43;;;;;;;14.45;8.77;;;7.30;99.90;;;;;;4984454;28;20017;-82
2021/10/28 06:10:11;;;;;;;11.60;8.77;;;7.30;99.90;;;;;;5014104;28;20390;-81
2021/10/28 06:12:43;;;;;;;12.07;9.15;;;7.40;99.90;;;;;;5015211;28;20114;-80
2021/10/28 06:15:12;;;;;;;12.95;8.82;;;7.40;99.90;;;;;;5015373;28;20025;-81
2021/10/28 06:20:16;;;;;;;10.48;8.35;;;7.50;99.90;;;;;;5015151;28;20084;-80
2021/10/28 06:22:42;;;;;;;16.15;8.73;;;7.60;99.90;;;;;;5015234;28;20068;-82
2021/10/28 06:25:09;;;;;;;10.57;7.32;;;7.60;99.90;;;;;;4997724;28;20022;-80
2021/10/28 06:27:36;;;;;;;12.68;8.88;;;7.60;99.90;;;;;;5014612;28;20375;-81
2021/10/28 06:30:02;;;;;;;10.23;7.45;;;7.60;99.90;;;;;;4997540;28;20372;-81
2021/10/28 06:32:28;;;;;;;9.95;7.72;;;7.60;99.90;;;;;;5013674;28;20394;-81
2021/10/28 06:34:54;;;;;;;9.77;6.75;;;7.70;99.90;;;;;;4997276;28;20075;-81
2021/10/28 06:37:20;;;;;;;9.35;7.45;;;7.60;99.90;;;;;;5015220;28;20030;-80
2021/10/28 06:39:45;;;;;;;9.05;7.25;;;7.70;99.90;;;;;;5014921;28;20029;-81
2021/10/28 06:42:13;;;;;;;10.27;7.05;;;7.70;99.90;;;;;;5015546;28;20022;-80
2021/10/28 06:44:40;;;;;;;8.80;6.75;;;7.70;99.90;;;;;;5015879;28;20160;-81
2021/10/28 06:47:06;;;;;;;10.85;6.88;;;7.70;99.90;;;;;;5015939;28;20036;-80
2021/10/28 06:49:35;;;;;;;9.55;7.30;;;7.80;99.90;;;;;;5016143;28;20379;-82
2021/10/28 06:52:03;;;;;;;9.60;6.97;;;7.80;99.90;;;;;;5016450;28;20038;-80
2021/10/28 06:54:35;;;;;;;7.22;5.90;;;7.90;99.90;;;;;;5010770;28;20042;-82
2021/10/28 07:02:35;;;;;;;7.82;5.93;;;8.10;99.90;;;;;;4995182;28;20517;-81
2021/10/28 07:05:03;;;;;;;9.95;5.93;;;8.20;99.90;;;;;;4994496;28;20426;-77
2021/10/28 07:07:31;;;;;;;10.93;5.72;;;8.30;99.90;;;;;;5010806;28;20099;-79
2021/10/28 07:10:06;;;;;;;7.15;5.25;;;8.30;99.90;;;;;;5012740;28;20018;-78
2021/10/28 07:15:11;;;;;;;7.00;5.63;;;8.40;99.90;;;;;;5014016;28;20022;-79
2021/10/28 07:55:43;;;;;;;9.48;6.10;;;9.10;99.90;;;;;;5014442;28;20045;-81
2021/10/28 08:14:24;;;;;;;11.15;8.10;;;9.30;99.90;;;;;;5013287;28;20513;-79
2021/10/28 08:22:24;;;;;;;12.07;6.75;;;9.50;99.90;;;;;;5013125;28;20479;-81
2021/10/28 08:30:11;;;;;;;6.18;5.05;;;9.70;99.90;;;;;;5012845;28;20036;-80
2021/10/28 08:32:38;;;;;;;7.03;4.50;;;9.80;99.80;;;;;;5013063;28;20486;-80
2021/10/28 08:35:05;;;;;;;9.02;4.85;;;9.90;99.90;;;;;;4995663;28;20278;-81
2021/10/28 08:38:05;;;;;;;5.55;4.05;;;9.90;99.70;;;;;;5012757;28;20034;-81
2021/10/28 08:40:24;;;;;;;3.90;3.22;;;10.00;99.70;;;;;;5009821;28;20075;-79
2021/10/28 08:42:51;;;;;;;5.32;3.50;;;10.10;99.60;;;;;;5012888;28;20030;-80
2021/10/28 08:45:20;;;;;;;4.33;3.37;;;10.20;99.50;;;;;;4995235;28;20034;-80
2021/10/28 08:47:53;;;;;;;7.05;3.47;;;10.30;99.30;;;;;;5012518;28;20334;-80
2021/10/28 08:50:29;;;;;;;7.40;3.28;;;10.50;98.90;;;;;;4995192;28;20049;-81
2021/10/28 08:55:44;;;;;;;5.70;2.63;;;10.50;98.60;;;;;;5013031;28;20038;-79
2021/10/28 08:58:36;;;;;;;5.03;2.50;;;10.70;98.40;;;;;;5013676;28;20026;-81
2021/10/28 09:26:22;;;;;;;5.70;2.53;;;10.70;97.50;;;;;;5016948;28;20037;-80
2021/10/28 09:29:09;;;;;;;4.05;2.95;;;10.60;97.90;;;;;;5016113;28;20026;-79
2021/10/28 09:31:39;;;;;;;2.95;2.58;;;10.50;98.40;;;;;;5015896;28;20057;-81
2021/10/28 09:51:14;;;;;;;4.65;2.97;;;10.90;97.90;;;;;;5016015;28;20145;-80
2021/10/28 09:59:34;;;;;;;2.63;1.90;;;11.00;98.20;;;;;;5015762;28;20172;-80
2021/10/28 10:02:14;;;;;;;2.38;1.65;;;11.10;98.00;;;;;;5016224;28;20479;-80
2021/10/28 10:04:43;;;;;;;5.65;2.10;;;11.30;97.80;;;;;;5015461;28;20030;-81
2021/10/28 10:07:20;;;;;;;2.72;1.98;;;11.40;97.50;;;;;;5015441;28;20494;-81
2021/10/28 10:09:47;;;;;;;2.85;2.17;;;11.50;97.30;;;;;;5015252;28;20026;-81
2021/10/28 10:12:17;;;;;;;1.70;1.58;;;11.60;97.10;;;;;;4997615;28;20037;-80
2021/10/28 10:14:44;;;;;;;3.40;1.75;;;11.60;96.70;;;;;;5015430;28;20392;-80
2021/10/28 10:17:11;;;;;;;4.38;1.70;;;11.60;96.70;;;;;;5014626;28;20026;-80
2021/10/28 10:19:40;;;;;;;3.58;1.63;;;11.60;96.60;;;;;;4997669;28;20498;-81
2021/10/28 10:22:23;;;;;;;2.45;1.73;;;11.60;96.30;;;;;;5015349;28;20032;-80
2021/10/28 11:21:57;;;;;;;3.10;1.90;;;12.10;94.10;;;;;;5014496;28;20093;-80
2021/10/28 12:25:19;;;;;;;3.75;1.55;;;11.60;91.60;;;;;;4993722;28;20089;-81
2021/10/28 13:04:04;;;;;;;3.67;1.77;;;11.20;92.90;;;;;;5015275;28;20040;-79
2021/10/28 13:54:57;;;;;;;2.97;1.60;;;10.80;91.70;;;;;;5015717;28;20061;-81
2021/10/28 14:00:41;;;;;;;3.40;1.65;;;10.40;93.10;;;;;;5015350;28;20084;-81
2021/10/28 14:22:39;;;;;;;5.20;2.03;;;9.50;97.80;;;;;;5015458;28;20117;-80
2021/10/28 14:25:58;;;;;;;1.67;1.27;;;9.40;98.00;;;;;;5014917;28;20022;-80
2021/10/28 15:28:16;;;;;;;5.03;3.05;;;9.40;94.70;;;;;;4995898;28;20069;-80
2021/10/28 15:36:43;;;;;;;5.65;3.10;;;9.20;94.60;;;;;;4978159;28;20047;-80
2021/10/28 15:39:16;;;;;;;2.63;1.42;;;9.30;94.70;;;;;;4994238;28;20112;-83
2021/10/28 15:42:35;;;;;;;4.20;2.70;;;9.30;94.50;;;;;;5002437;28;20053;-79
2021/10/28 16:22:29;;;;;;;2.97;1.08;;;9.00;92.50;;;;;;4974016;28;20042;-80
2021/10/28 16:24:55;;;;;;;1.88;1.17;;;9.00;92.40;;;;;;4974119;28;20023;-80
2021/10/28 16:27:21;;;;;;;1.60;1.23;;;8.90;92.20;;;;;;4974250;28;20026;-80
2021/10/28 16:29:47;;;;;;;1.20;1.00;;;8.90;92.30;;;;;;4974329;28;20033;-80
2021/10/28 16:32:16;;;;;;;2.47;1.48;;;8.90;92.00;;;;;;4973841;28;20037;-81
2021/10/28 16:34:42;;;;;;;1.08;0.77;;;8.90;92.10;;;;;;4973885;28;20034;-80
2021/10/28 16:37:08;;;;;;;1.35;0.80;;;8.80;91.90;;;;;;4973650;28;20027;-79
2021/10/28 16:39:34;;;;;;;1.05;0.57;;;8.80;91.60;;;;;;4973752;28;20034;-81
2021/10/28 16:42:01;;;;;;;0.73;0.57;;;8.80;91.20;;;;;;4996435;28;20034;-80
2021/10/28 16:44:27;;;;;;;0.77;0.50;;;8.80;90.70;;;;;;5012501;28;20034;-82
2021/10/28 16:46:54;;;;;;;1.45;0.90;;;8.70;90.20;;;;;;5013195;28;20022;-78
2021/10/28 16:49:22;;;;;;;1.13;0.70;;;8.70;90.20;;;;;;5012844;28;20021;-79
2021/10/28 16:51:48;;;;;;;1.02;0.60;;;8.60;90.20;;;;;;5012305;28;20259;-80
2021/10/28 16:54:17;;;;;;;0.98;0.60;;;8.60;90.30;;;;;;5011951;28;20492;-80
2021/10/28 16:56:44;;;;;;;2.47;0.90;;;8.60;90.00;;;;;;4993079;28;20475;-80
2021/10/28 16:59:10;;;;;;;0.82;0.73;;;8.60;90.10;;;;;;4993603;28;20352;-80
2021/10/28 17:01:36;;;;;;;3.42;0.90;;;8.60;89.90;;;;;;4993975;28;20026;-79
2021/10/28 17:04:09;;;;;;;1.02;0.63;;;8.60;89.90;;;;;;4993247;28;20038;-80
2021/10/28 17:06:35;;;;;;;2.10;1.10;;;8.60;89.80;;;;;;4992979;28;20339;-79
2021/10/28 17:09:05;;;;;;;2.65;1.38;;;8.60;89.10;;;;;;4992861;28;20109;-82
2021/10/28 17:11:31;;;;;;;2.80;1.45;;;8.50;88.50;;;;;;4991580;28;20026;-79
2021/10/28 17:13:57;;;;;;;1.15;0.88;;;8.50;88.20;;;;;;4992777;28;20034;-80
2021/10/28 17:16:24;;;;;;;3.03;1.10;;;8.50;88.60;;;;;;4993099;28;20084;-79
2021/10/28 17:18:50;;;;;;;3.63;1.20;;;8.40;88.50;;;;;;4992930;28;20050;-80
2021/10/28 17:21:16;;;;;;;2.42;1.40;;;8.40;88.50;;;;;;4993178;28;20412;-81
2021/10/28 17:23:45;;;;;;;2.90;1.80;;;8.40;88.40;;;;;;4993055;28;20088;-79
2021/10/28 17:26:13;;;;;;;2.17;1.73;;;8.40;87.90;;;;;;4992912;28;20018;-81
2021/10/28 17:28:39;;;;;;;2.75;1.73;;;8.40;87.60;;;;;;4996021;28;20022;-80
2021/10/28 17:31:07;;;;;;;2.05;1.70;;;8.40;87.90;;;;;;4996379;28;20502;-79
2021/10/28 17:33:33;;;;;;;;;;;8.30;88.10;;;;;;4996665;28;20027;-80
2021/10/28 17:36:00;;;;;;;2.22;1.80;;;8.40;88.60;;;;;;4996883;28;19906;-80
2021/10/28 17:38:26;;;;;;;4.38;2.40;;;8.30;88.40;;;;;;4978965;28;20033;-79
2021/10/28 17:40:52;;;;;;;4.25;2.58;;;8.30;88.10;;;;;;4998434;28;20026;-80
2021/10/28 17:43:21;;;;;;;3.60;2.63;;;8.30;88.00;;;;;;4998573;28;20050;-79
2021/10/28 17:45:54;;;;;;;3.80;2.85;;;8.40;87.90;;;;;;4998408;28;20033;-79
2021/10/28 17:48:19;;;;;;;3.25;2.92;;;8.40;87.70;;;;;;5015790;28;20084;-81
2021/10/28 17:50:45;;;;;;;4.97;3.25;;;8.40;87.50;;;;;;5015866;28;20026;-79
2021/10/28 17:53:11;;;;;;;3.33;2.60;;;8.40;87.60;;;;;;5014758;28;20038;-79
2021/10/28 17:55:37;;;;;;;5.45;2.85;;;8.40;87.40;;;;;;5014009;28;20499;-81
2021/10/28 17:58:04;;;;;;;6.20;3.60;;;8.40;87.40;;;;;;5015489;28;20387;-81
2021/10/28 18:00:30;;;;;;;4.88;3.13;;;8.40;87.50;;;;;;5015713;28;20054;-81
2021/10/28 18:02:56;;;;;;;5.00;2.63;;;8.40;87.60;;;;;;5013916;28;20034;-81
2021/10/28 18:05:22;;;;;;;4.15;3.45;;;8.40;87.50;;;;;;5015492;28;20033;-81
2021/10/28 18:07:49;;;;;;;4.30;3.50;;;8.40;87.40;;;;;;5015330;28;20018;-81
2021/10/28 18:10:16;;;;;;;4.90;4.03;;;8.40;87.60;;;;;;5015465;28;20114;-81
2021/10/28 18:12:42;;;;;;;5.00;4.03;;;8.40;88.00;;;;;;5014480;28;20291;-82
2021/10/28 18:15:09;;;;;;;5.65;4.03;;;8.40;88.00;;;;;;5015092;28;20030;-80
2021/10/28 18:17:35;;;;;;;4.37;3.97;;;8.40;88.10;;;;;;4997284;28;20026;-79
2021/10/28 18:20:03;;;;;;;6.72;3.88;;;8.30;88.20;;;;;;5014982;28;20022;-79
2021/10/28 18:22:30;;;;;;;5.22;4.22;;;8.30;88.10;;;;;;5015027;28;20471;-79
2021/10/28 18:24:57;;;;;;;5.97;4.20;;;8.30;88.40;;;;;;5015075;28;20022;-80
2021/10/28 18:27:23;;;;;;;8.18;4.72;;;8.30;88.50;;;;;;5015029;28;20447;-80
2021/10/28 18:29:49;;;;;;;7.85;4.68;;;8.30;88.40;;;;;;5013323;28;20029;-80
2021/10/28 18:32:15;;;;;;;5.05;4.55;;;8.30;87.90;;;;;;5014569;28;20034;-79
2021/10/28 18:34:43;;;;;;;5.75;4.65;;;8.30;87.40;;;;;;5014771;28;20032;-80
2021/10/28 18:37:09;;;;;;;4.15;3.75;;;8.30;87.60;;;;;;5014859;28;20025;-79
2021/10/28 18:39:36;;;;;;;5.30;4.15;;;8.30;88.00;;;;;;5014534;28;20049;-79
2021/10/28 18:42:02;;;;;;;5.80;4.18;;;8.30;87.00;;;;;;5014271;28;20387;-83
2021/10/28 18:44:29;;;;;;;4.35;3.03;;;8.30;86.80;;;;;;5014646;28;20022;-82
2021/10/28 18:46:56;;;;;;;3.17;2.17;;;8.30;85.50;;;;;;5013845;28;20029;-87
2021/10/28 18:49:22;;;;;;;4.88;3.35;;;8.30;85.10;;;;;;5024820;28;20331;-88
2021/10/28 18:51:49;;;;;;;3.70;2.40;;;8.30;85.40;;;;;;5021182;28;20033;-87
2021/10/28 18:54:17;;;;;;;7.80;3.55;;;8.30;85.40;;;;;;5011984;28;20049;-90
2021/10/28 18:56:47;;;;;;;3.50;2.88;;;8.30;85.30;;;;;;5017827;28;20029;-85
2021/10/28 18:59:14;;;;;;;3.60;3.08;;;8.30;85.10;;;;;;5015607;28;20382;-84
2021/10/28 19:01:41;;;;;;;4.28;2.78;;;8.40;85.30;;;;;;5015742;28;20014;-86
2021/10/28 19:04:07;;;;;;;5.25;3.72;;;8.40;85.30;;;;;;5015313;28;20033;-83
2021/10/28 19:06:33;;;;;;;4.53;3.78;;;8.40;85.40;;;;;;5011764;28;20029;-84
2021/10/28 19:08:59;;;;;;;5.55;3.30;;;8.50;85.40;;;;;;4997507;28;20088;-89
2021/10/28 19:11:30;;;;;;;3.55;3.03;;;8.50;85.20;;;;;;5007185;28;20081;-84
2021/10/28 19:14:03;;;;;;;3.28;2.40;;;8.50;84.90;;;;;;5014457;28;20037;-88
2021/10/28 19:16:29;;;;;;;3.03;2.42;;;8.50;84.50;;;;;;5015373;28;20470;-87
2021/10/28 19:18:55;;;;;;;2.47;2.20;;;8.50;84.70;;;;;;5014870;28;20483;-86
2021/10/28 19:21:31;;;;;;;4.03;2.50;;;8.50;84.80;;;;;;5015488;28;20022;-87
2021/10/28 19:23:57;;;;;;;4.70;2.80;;;8.60;84.80;;;;;;5015912;28;20462;-88
2021/10/28 19:26:36;;;;;;;3.70;2.42;;;8.60;84.80;;;;;;4990929;28;20081;-92
2021/10/28 19:29:06;;;;;;;2.53;2.30;;;8.60;84.80;;;;;;4997713;28;20022;-93
2021/10/28 19:31:40;;;;;;;5.30;3.33;;;8.60;84.60;;;;;;5012441;28;20026;-92
2021/10/28 19:34:06;;;;;;;2.97;2.42;;;8.60;84.50;;;;;;5016903;28;20128;-86
2021/10/28 19:36:39;;;;;;;2.80;2.10;;;8.60;84.60;;;;;;5013792;28;20112;-83
2021/10/28 19:47:13;;;;;;;4.57;3.33;;;8.60;84.90;;;;;;5014436;28;20529;-83
2021/10/28 19:49:40;;;;;;;5.97;3.33;;;8.70;84.70;;;;;;5014070;28;20026;-83
2021/10/28 19:52:07;;;;;;;4.82;3.30;;;8.60;84.30;;;;;;5014916;28;20078;-85
2021/10/28 19:54:35;;;;;;;5.22;3.85;;;8.60;83.30;;;;;;5008116;28;20411;-85
2021/10/28 19:57:01;;;;;;;5.22;4.00;;;8.60;83.40;;;;;;5013618;28;20030;-84
2021/10/28 19:59:32;;;;;;;5.63;3.55;;;8.60;83.50;;;;;;5013716;28;20090;-83
2021/10/28 20:01:59;;;;;;;4.07;3.65;;;8.60;84.00;;;;;;5013684;28;20014;-84
2021/10/28 20:20:11;;;;;;;5.03;4.10;;;8.70;84.30;;;;;;5012958;28;20036;-83
2021/10/28 20:22:43;;;;;;;7.72;5.03;;;8.60;83.90;;;;;;5013436;28;20156;-82
2021/10/28 20:25:16;;;;;;;6.38;3.95;;;8.60;84.00;;;;;;5012705;28;20486;-83
2021/10/28 20:27:45;;;;;;;7.47;5.30;;;8.60;83.20;;;;;;5012388;28;20025;-83
2021/10/28 20:30:11;;;;;;;7.70;4.82;;;8.60;83.10;;;;;;5013040;28;20080;-84
2021/10/28 20:32:38;;;;;;;5.90;3.95;;;8.60;82.80;;;;;;5012966;28;20143;-84
2021/10/28 20:37:36;;;;;;;5.13;3.83;;;8.60;82.80;;;;;;5013970;28;20512;-85
2021/10/28 20:40:04;;;;;;;5.60;4.43;;;8.60;82.60;;;;;;5013410;28;20029;-84
2021/10/28 20:42:36;;;;;;;9.43;4.72;;;8.70;82.80;;;;;;4996660;28;20487;-84
2021/10/28 20:45:10;;;;;;;7.18;3.97;;;8.70;82.50;;;;;;5020984;28;20049;-89
2021/10/28 20:47:41;;;;;;;8.05;5.43;;;8.70;82.50;;;;;;5000924;28;20110;-82
2021/10/28 20:50:11;;;;;;;6.13;4.63;;;8.70;82.50;;;;;;5002867;28;20080;-84
2021/10/28 20:52:37;;;;;;;8.88;5.65;;;8.70;82.70;;;;;;5013022;28;20061;-83
2021/10/28 20:55:04;;;;;;;5.68;3.92;;;8.70;82.70;;;;;;5012759;28;20034;-85
2021/10/28 20:57:38;;;;;;;5.87;4.47;;;8.80;82.70;;;;;;5013977;28;20022;-83
2021/10/28 21:00:10;;;;;;;4.40;3.35;;;8.80;82.40;;;;;;4999792;28;20267;-84
2021/10/28 21:02:37;;;;;;;7.07;4.47;;;8.80;82.00;;;;;;5016680;28;20026;-82
2021/10/28 21:05:11;;;;;;;6.17;4.87;;;8.80;81.80;;;;;;5017309;28;20438;-82
2021/10/28 21:07:42;;;;;;;8.43;5.03;;;8.80;81.70;;;;;;5015476;28;20272;-84
2021/10/28 21:10:12;;;;;;;7.07;4.40;;;8.80;82.10;;;;;;5015327;28;20036;-83
2021/10/28 21:12:38;;;;;;;6.00;4.20;;;8.80;82.50;;;;;;5016888;28;20038;-85
2021/10/28 21:15:05;;;;;;;8.33;4.97;;;8.80;82.80;;;;;;5017532;28;20022;-83
2021/10/28 21:17:31;;;;;;;9.07;5.40;;;8.80;83.20;;;;;;5017030;28;20483;-82
2021/10/28 21:19:57;;;;;;;8.75;5.10;;;8.80;83.60;;;;;;5016667;28;20050;-84
2021/10/28 21:22:25;;;;;;;8.35;5.28;;;8.70;83.90;;;;;;5015160;28;20475;-85
2021/10/28 21:24:51;;;;;;;9.48;6.00;;;8.80;84.10;;;;;;5005330;28;20030;-84
2021/10/28 21:27:18;;;;;;;8.90;5.30;;;8.80;84.30;;;;;;4983249;28;20468;-84
2021/10/28 21:29:44;;;;;;;14.40;6.40;;;8.80;84.50;;;;;;5009890;28;20030;-83
2021/10/28 21:32:11;;;;;;;8.45;5.93;;;8.80;84.40;;;;;;5016429;28;20030;-85
2021/10/28 21:34:40;;;;;;;11.95;6.28;;;8.80;84.30;;;;;;5013030;28;20030;-83
2021/10/28 21:37:08;;;;;;;10.75;6.15;;;8.80;84.50;;;;;;5015467;28;20022;-87
2021/10/28 21:39:34;;;;;;;10.07;5.53;;;8.80;84.80;;;;;;5016851;28;20018;-82
2021/10/28 21:42:00;;;;;;;11.43;7.30;;;8.80;85.20;;;;;;5017136;28;20026;-83
2021/10/28 21:44:26;;;;;;;8.70;5.43;;;8.80;85.50;;;;;;5014919;28;20061;-83
2021/10/28 21:46:52;;;;;;;13.18;6.75;;;8.80;85.70;;;;;;5017131;28;20026;-83
2021/10/28 21:49:18;;;;;;;7.53;5.72;;;8.80;86.30;;;;;;5011800;28;20050;-83
2021/10/28 21:51:47;;;;;;;9.43;5.55;;;8.70;85.80;;;;;;4998524;28;20026;-80
2021/10/28 21:57:03;;;;;;;8.48;5.63;;;8.70;86.30;;;;;;5016149;28;20089;-80
2021/10/28 22:26:46;;;;;;;11.32;8.25;;;8.70;87.30;;;;;;4992833;28;20066;-84
2021/10/28 22:29:12;;;;;;;11.93;8.00;;;8.60;87.50;;;;;;5000763;28;20021;-84
2021/10/28 22:31:38;;;;;;;13.95;7.75;;;8.70;87.80;;;;;;4980048;28;20390;-83
2021/10/28 22:34:05;;;;;;;13.25;8.02;;;8.60;88.00;;;;;;4978833;28;20510;-84